Terminal Aerodrome Forecast
Issued by NWS Bismarck, ND

Home | Current Version | Previous Version | Text Only | Print | Product List | Glossary On
Versions: 1 2 3 4 5 6 7 8 9 10 11 12 13 14 15 16 17 18
000
FTUS43 KBIS 272300
TAFISN
TAF
KISN 272332Z 2800/2824 01017KT P6SM BKN080
     FM280700 03016KT P6SM -SHRA OVC050
     FM281300 04016KT P6SM -SHRA OVC030=

USA.gov is the U.S. government's official web portal to all federal, state and local government web resources and services.